If you wish to contribute or participate in the discussions about articles you are invited to join SKYbrary as a registered user

 Actions

Værøy Heliport

From SKYbrary Wiki

ENVR
Airport
ICAO: ENVR
Summary
Name Værøy Heliport
Region Europe
Territory Norway NO.gif
Location Værøy, Nordland
Serving
Coordinates 67° 39' 18.26" N, 12° 43' 30.18" E
Runways
Designator Length Width Surface ROPS
3/21 59 m193.57 ft <br /> 34 m111.549 ft <br /> Asphalt /


METAR
Observation ENVR 160550Z 01014KT 9999 VCSH FEW008 SCT028 OVC037 05/01 Q0994
Station Værøy Heliport
Date/Time 16 October 2021 05:50:00
Wind direction 10°
Wind speed 14 kts
Lowest cloud amount few clouds
Temperature 5°C
Dew point 1°C
Humidity 75%
QNH 994 hPa
Weather condition in vicinity: showers

Værøy Airport

ICAO: ENVR IATA: VRY

Description

Værøy Heliport (Norwegian: Værøy lufthavn) is a heliport on the island of Værøy in Nordland county in Norway. The airport had 8,372 passengers in 2005.

Scheduled helicopter services are provided by Lufttransport on public service obligation contracts with the Norwegian Government to Bodø.

Climatology

Subpolar Oceanic climate (Köppen climate classification Cfc) - uniform precipitation distribution, temperatures are moderated by the proximity of the ocean and warm currents - cool summers and comparatively mild winters.

Maps

Terrain

Loading map...

Airport Layout

Loading map...


Accidents & Serious Incidents at or in vicinity of ENVR

None on SKYbrary